sensor_id;sensor_type;location;lat;lon;timestamp;P1;durP1;ratioP1;P2;durP2;ratioP2
41829;SDS011;38614;43.472;23.936;2023-05-01T00:01:53;11.80;;;2.00;;
41829;SDS011;38614;43.472;23.936;2023-05-01T00:04:41;2.05;;;1.70;;
41829;SDS011;38614;43.472;23.936;2023-05-01T00:07:31;1.73;;;1.40;;
41829;SDS011;38614;43.472;23.936;2023-05-01T00:10:20;1.45;;;1.20;;
41829;SDS011;38614;43.472;23.936;2023-05-01T00:13:10;1.52;;;1.30;;
41829;SDS011;38614;43.472;23.936;2023-05-01T00:15:58;1.95;;;1.80;;
41829;SDS011;38614;43.472;23.936;2023-05-01T00:18:46;1.70;;;1.27;;
41829;SDS011;38614;43.472;23.936;2023-05-01T00:21:34;2.20;;;1.85;;
41829;SDS011;38614;43.472;23.936;2023-05-01T00:24:22;2.83;;;1.60;;
41829;SDS011;38614;43.472;23.936;2023-05-01T00:27:12;2.08;;;1.95;;
41829;SDS011;38614;43.472;23.936;2023-05-01T00:30:00;3.10;;;1.80;;
41829;SDS011;38614;43.472;23.936;2023-05-01T00:32:50;2.22;;;1.70;;
41829;SDS011;38614;43.472;23.936;2023-05-01T00:35:38;11.55;;;1.83;;
41829;SDS011;38614;43.472;23.936;2023-05-01T00:38:26;3.30;;;1.73;;
41829;SDS011;38614;43.472;23.936;2023-05-01T00:41:14;2.58;;;1.50;;
41829;SDS011;38614;43.472;23.936;2023-05-01T00:44:02;2.22;;;2.03;;
41829;SDS011;38614;43.472;23.936;2023-05-01T00:46:50;2.78;;;1.67;;
41829;SDS011;38614;43.472;23.936;2023-05-01T00:49:39;5.25;;;1.48;;
41829;SDS011;38614;43.472;23.936;2023-05-01T00:52:29;1.75;;;1.63;;
41829;SDS011;38614;43.472;23.936;2023-05-01T00:55:16;2.35;;;1.77;;
41829;SDS011;38614;43.472;23.936;2023-05-01T00:58:04;3.85;;;1.70;;
41829;SDS011;38614;43.472;23.936;2023-05-01T01:00:52;2.08;;;1.55;;
41829;SDS011;38614;43.472;23.936;2023-05-01T01:03:41;1.92;;;1.83;;
41829;SDS011;38614;43.472;23.936;2023-05-01T01:09:35;2.60;;;1.83;;
41829;SDS011;38614;43.472;23.936;2023-05-01T01:12:51;4.13;;;2.13;;
41829;SDS011;38614;43.472;23.936;2023-05-01T01:16:06;5.38;;;1.70;;
41829;SDS011;38614;43.472;23.936;2023-05-01T01:22:24;2.42;;;2.22;;
41829;SDS011;38614;43.472;23.936;2023-05-01T01:35:19;5.03;;;3.60;;
41829;SDS011;38614;43.472;23.936;2023-05-01T01:41:19;5.40;;;3.53;;
41829;SDS011;38614;43.472;23.936;2023-05-01T01:44:19;5.38;;;3.88;;
41829;SDS011;38614;43.472;23.936;2023-05-01T01:47:15;6.93;;;3.95;;
41829;SDS011;38614;43.472;23.936;2023-05-01T01:50:04;7.65;;;3.33;;
41829;SDS011;38614;43.472;23.936;2023-05-01T01:52:54;5.25;;;3.08;;
41829;SDS011;38614;43.472;23.936;2023-05-01T01:55:46;11.45;;;5.00;;
41829;SDS011;38614;43.472;23.936;2023-05-01T01:58:35;7.07;;;4.20;;
41829;SDS011;38614;43.472;23.936;2023-05-01T02:01:26;7.65;;;3.83;;
41829;SDS011;38614;43.472;23.936;2023-05-01T02:04:15;6.40;;;3.22;;
41829;SDS011;38614;43.472;23.936;2023-05-01T02:07:05;5.88;;;2.67;;
41829;SDS011;38614;43.472;23.936;2023-05-01T02:09:55;3.65;;;2.03;;
41829;SDS011;38614;43.472;23.936;2023-05-01T02:12:45;4.25;;;2.28;;
41829;SDS011;38614;43.472;23.936;2023-05-01T02:15:36;2.28;;;2.10;;
41829;SDS011;38614;43.472;23.936;2023-05-01T02:18:26;2.45;;;2.22;;
41829;SDS011;38614;43.472;23.936;2023-05-01T02:21:17;3.97;;;2.22;;
41829;SDS011;38614;43.472;23.936;2023-05-01T02:24:06;6.35;;;3.20;;
41829;SDS011;38614;43.472;23.936;2023-05-01T02:26:59;3.88;;;2.90;;
41829;SDS011;38614;43.472;23.936;2023-05-01T02:29:50;3.85;;;2.47;;
41829;SDS011;38614;43.472;23.936;2023-05-01T02:32:38;5.45;;;2.58;;
41829;SDS011;38614;43.472;23.936;2023-05-01T02:35:26;4.25;;;3.38;;
41829;SDS011;38614;43.472;23.936;2023-05-01T02:38:15;3.60;;;2.55;;
41829;SDS011;38614;43.472;23.936;2023-05-01T02:41:04;3.85;;;3.45;;
41829;SDS011;38614;43.472;23.936;2023-05-01T02:43:56;3.28;;;2.55;;
41829;SDS011;38614;43.472;23.936;2023-05-01T02:46:48;4.15;;;2.33;;
41829;SDS011;38614;43.472;23.936;2023-05-01T02:49:38;4.50;;;2.85;;
41829;SDS011;38614;43.472;23.936;2023-05-01T02:52:28;5.10;;;3.20;;
41829;SDS011;38614;43.472;23.936;2023-05-01T02:55:35;3.47;;;3.00;;
41829;SDS011;38614;43.472;23.936;2023-05-01T02:58:23;6.18;;;3.05;;
41829;SDS011;38614;43.472;23.936;2023-05-01T03:01:11;5.65;;;3.58;;
41829;SDS011;38614;43.472;23.936;2023-05-01T03:03:59;5.93;;;3.53;;
41829;SDS011;38614;43.472;23.936;2023-05-01T03:06:50;6.20;;;3.70;;
41829;SDS011;38614;43.472;23.936;2023-05-01T03:09:38;3.05;;;2.72;;
41829;SDS011;38614;43.472;23.936;2023-05-01T03:12:26;4.43;;;3.42;;
41829;SDS011;38614;43.472;23.936;2023-05-01T03:15:22;39.28;;;11.43;;
41829;SDS011;38614;43.472;23.936;2023-05-01T03:18:09;17.33;;;6.45;;
41829;SDS011;38614;43.472;23.936;2023-05-01T03:20:58;12.00;;;4.70;;
41829;SDS011;38614;43.472;23.936;2023-05-01T03:23:46;10.98;;;5.20;;
41829;SDS011;38614;43.472;23.936;2023-05-01T03:26:35;9.77;;;4.30;;
41829;SDS011;38614;43.472;23.936;2023-05-01T03:29:22;6.28;;;4.40;;
41829;SDS011;38614;43.472;23.936;2023-05-01T03:32:10;6.20;;;4.75;;
41829;SDS011;38614;43.472;23.936;2023-05-01T03:34:58;3.60;;;3.30;;
41829;SDS011;38614;43.472;23.936;2023-05-01T03:37:46;13.70;;;3.15;;
41829;SDS011;38614;43.472;23.936;2023-05-01T03:40:52;4.55;;;2.67;;
41829;SDS011;38614;43.472;23.936;2023-05-01T03:44:02;7.13;;;3.42;;
41829;SDS011;38614;43.472;23.936;2023-05-01T03:47:02;4.43;;;2.60;;
41829;SDS011;38614;43.472;23.936;2023-05-01T03:49:53;7.78;;;3.33;;
41829;SDS011;38614;43.472;23.936;2023-05-01T03:52:45;3.90;;;2.75;;
41829;SDS011;38614;43.472;23.936;2023-05-01T03:55:35;5.40;;;3.88;;
41829;SDS011;38614;43.472;23.936;2023-05-01T03:58:23;6.95;;;4.20;;
41829;SDS011;38614;43.472;23.936;2023-05-01T04:01:11;6.97;;;2.88;;
41829;SDS011;38614;43.472;23.936;2023-05-01T04:04:03;11.02;;;3.30;;
41829;SDS011;38614;43.472;23.936;2023-05-01T04:06:52;6.40;;;3.75;;
41829;SDS011;38614;43.472;23.936;2023-05-01T04:09:40;4.43;;;3.95;;
41829;SDS011;38614;43.472;23.936;2023-05-01T04:12:28;5.68;;;3.30;;
41829;SDS011;38614;43.472;23.936;2023-05-01T04:15:15;7.75;;;3.85;;
41829;SDS011;38614;43.472;23.936;2023-05-01T04:18:03;4.72;;;4.00;;
41829;SDS011;38614;43.472;23.936;2023-05-01T04:20:53;8.68;;;4.20;;
41829;SDS011;38614;43.472;23.936;2023-05-01T04:23:41;4.85;;;3.97;;
41829;SDS011;38614;43.472;23.936;2023-05-01T04:26:29;11.55;;;4.63;;
41829;SDS011;38614;43.472;23.936;2023-05-01T04:29:17;11.35;;;3.47;;
41829;SDS011;38614;43.472;23.936;2023-05-01T04:32:05;5.35;;;3.80;;
41829;SDS011;38614;43.472;23.936;2023-05-01T04:34:53;3.80;;;3.38;;
41829;SDS011;38614;43.472;23.936;2023-05-01T04:37:41;8.20;;;3.90;;
41829;SDS011;38614;43.472;23.936;2023-05-01T04:40:28;4.25;;;3.17;;
41829;SDS011;38614;43.472;23.936;2023-05-01T04:43:18;5.45;;;3.28;;
41829;SDS011;38614;43.472;23.936;2023-05-01T04:46:05;4.93;;;2.90;;
41829;SDS011;38614;43.472;23.936;2023-05-01T04:48:56;9.13;;;3.05;;
41829;SDS011;38614;43.472;23.936;2023-05-01T04:51:44;3.72;;;2.70;;
41829;SDS011;38614;43.472;23.936;2023-05-01T04:54:34;7.78;;;3.60;;
41829;SDS011;38614;43.472;23.936;2023-05-01T04:57:22;11.75;;;3.63;;
41829;SDS011;38614;43.472;23.936;2023-05-01T05:00:10;3.40;;;2.67;;
41829;SDS011;38614;43.472;23.936;2023-05-01T05:03:07;7.75;;;3.58;;
41829;SDS011;38614;43.472;23.936;2023-05-01T05:05:55;3.40;;;3.03;;
41829;SDS011;38614;43.472;23.936;2023-05-01T05:08:44;10.15;;;3.40;;
41829;SDS011;38614;43.472;23.936;2023-05-01T05:11:32;10.00;;;3.08;;
41829;SDS011;38614;43.472;23.936;2023-05-01T05:14:27;4.95;;;3.25;;
41829;SDS011;38614;43.472;23.936;2023-05-01T05:17:15;5.03;;;3.47;;
41829;SDS011;38614;43.472;23.936;2023-05-01T05:20:03;8.27;;;3.13;;
41829;SDS011;38614;43.472;23.936;2023-05-01T05:22:51;4.10;;;3.25;;
41829;SDS011;38614;43.472;23.936;2023-05-01T05:25:42;4.20;;;2.97;;
41829;SDS011;38614;43.472;23.936;2023-05-01T05:28:30;3.42;;;3.13;;
41829;SDS011;38614;43.472;23.936;2023-05-01T05:31:18;3.33;;;3.03;;
41829;SDS011;38614;43.472;23.936;2023-05-01T05:34:06;3.35;;;3.05;;
41829;SDS011;38614;43.472;23.936;2023-05-01T05:36:54;4.35;;;3.70;;
41829;SDS011;38614;43.472;23.936;2023-05-01T05:39:44;7.45;;;4.50;;
41829;SDS011;38614;43.472;23.936;2023-05-01T05:42:32;13.32;;;4.40;;
41829;SDS011;38614;43.472;23.936;2023-05-01T05:45:24;6.43;;;3.88;;
41829;SDS011;38614;43.472;23.936;2023-05-01T05:48:11;11.65;;;4.47;;
41829;SDS011;38614;43.472;23.936;2023-05-01T05:51:00;8.77;;;4.47;;
41829;SDS011;38614;43.472;23.936;2023-05-01T05:53:47;15.10;;;4.68;;
41829;SDS011;38614;43.472;23.936;2023-05-01T05:56:36;7.47;;;4.13;;
41829;SDS011;38614;43.472;23.936;2023-05-01T05:59:24;18.25;;;3.97;;
41829;SDS011;38614;43.472;23.936;2023-05-01T06:02:12;3.50;;;3.08;;
41829;SDS011;38614;43.472;23.936;2023-05-01T06:05:00;8.35;;;3.85;;
41829;SDS011;38614;43.472;23.936;2023-05-01T06:07:48;14.60;;;3.42;;
41829;SDS011;38614;43.472;23.936;2023-05-01T06:10:37;6.90;;;4.03;;
41829;SDS011;38614;43.472;23.936;2023-05-01T06:13:27;6.80;;;4.30;;
41829;SDS011;38614;43.472;23.936;2023-05-01T06:16:15;7.93;;;4.13;;
41829;SDS011;38614;43.472;23.936;2023-05-01T06:19:03;4.82;;;3.00;;
41829;SDS011;38614;43.472;23.936;2023-05-01T06:21:51;8.13;;;2.92;;
41829;SDS011;38614;43.472;23.936;2023-05-01T06:24:39;5.28;;;3.00;;
41829;SDS011;38614;43.472;23.936;2023-05-01T06:27:29;2.97;;;2.15;;
41829;SDS011;38614;43.472;23.936;2023-05-01T06:30:16;4.25;;;2.50;;
41829;SDS011;38614;43.472;23.936;2023-05-01T06:33:05;6.90;;;3.38;;
41829;SDS011;38614;43.472;23.936;2023-05-01T06:35:54;6.18;;;2.88;;
41829;SDS011;38614;43.472;23.936;2023-05-01T06:38:42;5.38;;;2.92;;
41829;SDS011;38614;43.472;23.936;2023-05-01T06:41:34;7.28;;;3.00;;
41829;SDS011;38614;43.472;23.936;2023-05-01T06:44:24;5.35;;;2.20;;
41829;SDS011;38614;43.472;23.936;2023-05-01T06:47:12;4.40;;;2.92;;
41829;SDS011;38614;43.472;23.936;2023-05-01T06:50:01;4.75;;;3.08;;
41829;SDS011;38614;43.472;23.936;2023-05-01T06:52:52;3.80;;;2.85;;
41829;SDS011;38614;43.472;23.936;2023-05-01T06:55:40;6.07;;;2.28;;
41829;SDS011;38614;43.472;23.936;2023-05-01T06:58:27;5.18;;;2.30;;
41829;SDS011;38614;43.472;23.936;2023-05-01T07:01:15;2.33;;;2.10;;
41829;SDS011;38614;43.472;23.936;2023-05-01T07:04:03;3.15;;;1.88;;
41829;SDS011;38614;43.472;23.936;2023-05-01T07:06:51;2.95;;;2.00;;
41829;SDS011;38614;43.472;23.936;2023-05-01T07:09:39;3.42;;;2.28;;
41829;SDS011;38614;43.472;23.936;2023-05-01T07:12:27;11.45;;;2.55;;
41829;SDS011;38614;43.472;23.936;2023-05-01T07:15:15;4.85;;;2.00;;
41829;SDS011;38614;43.472;23.936;2023-05-01T07:18:03;2.97;;;2.35;;
41829;SDS011;38614;43.472;23.936;2023-05-01T07:20:54;2.47;;;1.92;;
41829;SDS011;38614;43.472;23.936;2023-05-01T07:23:47;5.03;;;1.80;;
41829;SDS011;38614;43.472;23.936;2023-05-01T07:26:35;3.53;;;1.83;;
41829;SDS011;38614;43.472;23.936;2023-05-01T07:29:24;3.22;;;1.88;;
41829;SDS011;38614;43.472;23.936;2023-05-01T07:32:12;1.58;;;1.33;;
41829;SDS011;38614;43.472;23.936;2023-05-01T07:35:00;3.53;;;1.42;;
41829;SDS011;38614;43.472;23.936;2023-05-01T07:37:49;1.52;;;1.38;;
41829;SDS011;38614;43.472;23.936;2023-05-01T07:40:41;5.22;;;2.20;;
41829;SDS011;38614;43.472;23.936;2023-05-01T07:43:28;2.72;;;1.92;;
41829;SDS011;38614;43.472;23.936;2023-05-01T07:46:16;2.63;;;2.00;;
41829;SDS011;38614;43.472;23.936;2023-05-01T07:49:07;3.17;;;1.50;;
41829;SDS011;38614;43.472;23.936;2023-05-01T07:51:55;2.10;;;1.27;;
41829;SDS011;38614;43.472;23.936;2023-05-01T07:54:47;8.07;;;2.20;;
41829;SDS011;38614;43.472;23.936;2023-05-01T07:57:35;7.25;;;1.80;;
41829;SDS011;38614;43.472;23.936;2023-05-01T08:00:23;2.20;;;1.00;;
41829;SDS011;38614;43.472;23.936;2023-05-01T08:03:11;13.05;;;2.42;;
41829;SDS011;38614;43.472;23.936;2023-05-01T08:05:59;3.70;;;1.75;;
41829;SDS011;38614;43.472;23.936;2023-05-01T08:08:47;5.10;;;1.67;;
41829;SDS011;38614;43.472;23.936;2023-05-01T08:11:35;3.67;;;1.60;;
41829;SDS011;38614;43.472;23.936;2023-05-01T08:14:22;5.20;;;1.27;;
41829;SDS011;38614;43.472;23.936;2023-05-01T08:17:10;6.65;;;2.30;;
41829;SDS011;38614;43.472;23.936;2023-05-01T08:19:59;7.28;;;2.15;;
41829;SDS011;38614;43.472;23.936;2023-05-01T08:22:47;3.85;;;1.63;;
41829;SDS011;38614;43.472;23.936;2023-05-01T08:25:34;2.42;;;1.20;;
41829;SDS011;38614;43.472;23.936;2023-05-01T08:28:22;1.88;;;1.00;;
41829;SDS011;38614;43.472;23.936;2023-05-01T08:31:10;2.08;;;1.38;;
41829;SDS011;38614;43.472;23.936;2023-05-01T08:33:57;1.77;;;1.13;;
41829;SDS011;38614;43.472;23.936;2023-05-01T08:36:45;4.63;;;1.17;;
41829;SDS011;38614;43.472;23.936;2023-05-01T08:39:33;3.83;;;1.13;;
41829;SDS011;38614;43.472;23.936;2023-05-01T08:42:20;3.85;;;1.23;;
41829;SDS011;38614;43.472;23.936;2023-05-01T08:45:09;3.65;;;1.90;;
41829;SDS011;38614;43.472;23.936;2023-05-01T08:47:58;8.23;;;0.95;;
41829;SDS011;38614;43.472;23.936;2023-05-01T08:50:48;3.92;;;1.35;;
41829;SDS011;38614;43.472;23.936;2023-05-01T08:53:36;12.40;;;1.25;;
41829;SDS011;38614;43.472;23.936;2023-05-01T08:56:28;1.77;;;1.25;;
41829;SDS011;38614;43.472;23.936;2023-05-01T08:59:17;3.20;;;1.25;;
41829;SDS011;38614;43.472;23.936;2023-05-01T09:02:07;2.03;;;1.65;;
41829;SDS011;38614;43.472;23.936;2023-05-01T09:04:56;3.15;;;1.10;;
41829;SDS011;38614;43.472;23.936;2023-05-01T09:07:47;1.60;;;1.42;;
41829;SDS011;38614;43.472;23.936;2023-05-01T09:10:38;3.65;;;0.80;;
41829;SDS011;38614;43.472;23.936;2023-05-01T09:13:31;2.70;;;0.70;;
41829;SDS011;38614;43.472;23.936;2023-05-01T09:16:19;5.07;;;1.25;;
41829;SDS011;38614;43.472;23.936;2023-05-01T09:19:08;1.00;;;0.70;;
41829;SDS011;38614;43.472;23.936;2023-05-01T09:21:56;1.10;;;0.68;;
41829;SDS011;38614;43.472;23.936;2023-05-01T09:24:44;1.70;;;1.40;;
41829;SDS011;38614;43.472;23.936;2023-05-01T09:27:35;5.45;;;1.08;;
41829;SDS011;38614;43.472;23.936;2023-05-01T09:33:24;4.65;;;0.95;;
41829;SDS011;38614;43.472;23.936;2023-05-01T09:36:14;3.13;;;0.63;;
41829;SDS011;38614;43.472;23.936;2023-05-01T09:39:03;1.95;;;0.90;;
41829;SDS011;38614;43.472;23.936;2023-05-01T09:41:51;1.63;;;1.10;;
41829;SDS011;38614;43.472;23.936;2023-05-01T09:44:42;2.08;;;0.70;;
41829;SDS011;38614;43.472;23.936;2023-05-01T09:47:31;3.95;;;0.60;;
41829;SDS011;38614;43.472;23.936;2023-05-01T09:50:33;1.45;;;0.60;;
41829;SDS011;38614;43.472;23.936;2023-05-01T09:53:43;2.70;;;1.05;;
41829;SDS011;38614;43.472;23.936;2023-05-01T09:56:30;2.92;;;1.15;;
41829;SDS011;38614;43.472;23.936;2023-05-01T09:59:19;1.48;;;0.73;;
41829;SDS011;38614;43.472;23.936;2023-05-01T10:02:09;8.32;;;0.70;;
41829;SDS011;38614;43.472;23.936;2023-05-01T10:05:16;0.70;;;0.40;;
41829;SDS011;38614;43.472;23.936;2023-05-01T10:08:04;5.07;;;0.68;;
41829;SDS011;38614;43.472;23.936;2023-05-01T10:11:01;0.73;;;0.30;;
41829;SDS011;38614;43.472;23.936;2023-05-01T10:16:54;5.25;;;0.35;;
41829;SDS011;38614;43.472;23.936;2023-05-01T10:19:44;1.60;;;0.40;;
41829;SDS011;38614;43.472;23.936;2023-05-01T10:22:33;2.00;;;0.45;;
41829;SDS011;38614;43.472;23.936;2023-05-01T10:25:21;2.00;;;0.65;;
41829;SDS011;38614;43.472;23.936;2023-05-01T10:28:11;1.13;;;0.30;;
41829;SDS011;38614;43.472;23.936;2023-05-01T10:31:00;0.70;;;0.35;;
41829;SDS011;38614;43.472;23.936;2023-05-01T10:33:50;0.85;;;0.30;;
41829;SDS011;38614;43.472;23.936;2023-05-01T10:36:41;0.55;;;0.30;;
41829;SDS011;38614;43.472;23.936;2023-05-01T10:39:34;0.40;;;0.10;;
41829;SDS011;38614;43.472;23.936;2023-05-01T10:42:22;2.38;;;0.55;;
41829;SDS011;38614;43.472;23.936;2023-05-01T10:45:28;0.77;;;0.35;;
41829;SDS011;38614;43.472;23.936;2023-05-01T10:51:27;1.10;;;0.65;;
41829;SDS011;38614;43.472;23.936;2023-05-01T10:57:06;4.28;;;0.40;;
41829;SDS011;38614;43.472;23.936;2023-05-01T11:02:48;0.65;;;0.40;;
41829;SDS011;38614;43.472;23.936;2023-05-01T11:08:51;0.85;;;0.40;;
41829;SDS011;38614;43.472;23.936;2023-05-01T11:17:49;0.70;;;0.43;;
41829;SDS011;38614;43.472;23.936;2023-05-01T11:20:45;1.17;;;0.20;;
41829;SDS011;38614;43.472;23.936;2023-05-01T11:23:33;0.40;;;0.20;;
41829;SDS011;38614;43.472;23.936;2023-05-01T11:26:22;0.40;;;0.20;;
41829;SDS011;38614;43.472;23.936;2023-05-01T11:29:13;1.75;;;0.13;;
41829;SDS011;38614;43.472;23.936;2023-05-01T11:32:01;0.60;;;0.40;;
41829;SDS011;38614;43.472;23.936;2023-05-01T11:34:49;4.88;;;0.30;;
41829;SDS011;38614;43.472;23.936;2023-05-01T11:37:41;1.92;;;0.40;;
41829;SDS011;38614;43.472;23.936;2023-05-01T11:40:31;0.50;;;0.20;;
41829;SDS011;38614;43.472;23.936;2023-05-01T11:43:21;1.42;;;0.20;;
41829;SDS011;38614;43.472;23.936;2023-05-01T11:46:09;2.40;;;0.85;;
41829;SDS011;38614;43.472;23.936;2023-05-01T11:48:59;1.70;;;0.38;;
41829;SDS011;38614;43.472;23.936;2023-05-01T11:51:54;2.55;;;0.20;;
41829;SDS011;38614;43.472;23.936;2023-05-01T11:54:46;2.72;;;0.50;;
41829;SDS011;38614;43.472;23.936;2023-05-01T12:00:52;1.45;;;0.55;;
41829;SDS011;38614;43.472;23.936;2023-05-01T12:03:40;0.50;;;0.40;;
41829;SDS011;38614;43.472;23.936;2023-05-01T12:06:39;1.60;;;0.45;;
41829;SDS011;38614;43.472;23.936;2023-05-01T12:09:31;2.30;;;0.28;;
41829;SDS011;38614;43.472;23.936;2023-05-01T12:12:22;0.93;;;0.50;;
41829;SDS011;38614;43.472;23.936;2023-05-01T12:15:10;4.05;;;0.50;;
41829;SDS011;38614;43.472;23.936;2023-05-01T12:17:58;1.17;;;0.38;;
41829;SDS011;38614;43.472;23.936;2023-05-01T12:20:47;2.20;;;0.35;;
41829;SDS011;38614;43.472;23.936;2023-05-01T12:23:39;1.67;;;0.40;;
41829;SDS011;38614;43.472;23.936;2023-05-01T12:26:26;1.55;;;0.40;;
41829;SDS011;38614;43.472;23.936;2023-05-01T12:29:16;0.30;;;0.30;;
41829;SDS011;38614;43.472;23.936;2023-05-01T12:32:03;0.95;;;0.30;;
41829;SDS011;38614;43.472;23.936;2023-05-01T12:34:51;0.45;;;0.35;;
41829;SDS011;38614;43.472;23.936;2023-05-01T12:37:39;2.60;;;0.20;;
41829;SDS011;38614;43.472;23.936;2023-05-01T12:40:27;0.63;;;0.17;;
41829;SDS011;38614;43.472;23.936;2023-05-01T12:43:15;1.27;;;0.30;;
41829;SDS011;38614;43.472;23.936;2023-05-01T12:46:03;0.80;;;0.40;;
41829;SDS011;38614;43.472;23.936;2023-05-01T12:48:52;0.75;;;0.25;;
41829;SDS011;38614;43.472;23.936;2023-05-01T12:51:44;0.93;;;0.20;;
41829;SDS011;38614;43.472;23.936;2023-05-01T12:54:36;2.05;;;0.50;;
41829;SDS011;38614;43.472;23.936;2023-05-01T12:57:26;9.25;;;0.82;;
41829;SDS011;38614;43.472;23.936;2023-05-01T13:00:14;1.27;;;0.30;;
41829;SDS011;38614;43.472;23.936;2023-05-01T13:03:02;1.90;;;0.35;;
41829;SDS011;38614;43.472;23.936;2023-05-01T13:05:52;7.55;;;0.57;;
41829;SDS011;38614;43.472;23.936;2023-05-01T13:08:41;1.80;;;0.73;;
41829;SDS011;38614;43.472;23.936;2023-05-01T13:11:29;0.73;;;0.10;;
41829;SDS011;38614;43.472;23.936;2023-05-01T13:14:17;0.50;;;0.20;;
41829;SDS011;38614;43.472;23.936;2023-05-01T13:17:08;0.73;;;0.17;;
41829;SDS011;38614;43.472;23.936;2023-05-01T13:20:00;0.45;;;0.32;;
41829;SDS011;38614;43.472;23.936;2023-05-01T13:22:50;3.72;;;1.13;;
41829;SDS011;38614;43.472;23.936;2023-05-01T13:25:38;0.43;;;0.30;;
41829;SDS011;38614;43.472;23.936;2023-05-01T13:28:27;1.27;;;0.30;;
41829;SDS011;38614;43.472;23.936;2023-05-01T13:31:15;2.00;;;0.38;;
41829;SDS011;38614;43.472;23.936;2023-05-01T13:34:03;1.75;;;0.63;;
41829;SDS011;38614;43.472;23.936;2023-05-01T13:36:53;3.83;;;0.32;;
41829;SDS011;38614;43.472;23.936;2023-05-01T13:39:42;1.45;;;0.30;;
41829;SDS011;38614;43.472;23.936;2023-05-01T13:42:31;3.85;;;0.20;;
41829;SDS011;38614;43.472;23.936;2023-05-01T13:45:19;0.70;;;0.40;;
41829;SDS011;38614;43.472;23.936;2023-05-01T13:48:09;3.63;;;0.28;;
41829;SDS011;38614;43.472;23.936;2023-05-01T13:50:57;0.30;;;0.10;;
41829;SDS011;38614;43.472;23.936;2023-05-01T13:53:46;1.23;;;0.38;;
41829;SDS011;38614;43.472;23.936;2023-05-01T13:56:36;3.40;;;0.40;;
41829;SDS011;38614;43.472;23.936;2023-05-01T13:59:35;0.70;;;0.30;;
41829;SDS011;38614;43.472;23.936;2023-05-01T14:02:26;1.30;;;0.30;;
41829;SDS011;38614;43.472;23.936;2023-05-01T14:05:15;2.30;;;0.45;;
41829;SDS011;38614;43.472;23.936;2023-05-01T14:08:09;1.17;;;0.30;;
41829;SDS011;38614;43.472;23.936;2023-05-01T14:10:58;3.63;;;0.40;;
41829;SDS011;38614;43.472;23.936;2023-05-01T14:13:46;0.93;;;0.30;;
41829;SDS011;38614;43.472;23.936;2023-05-01T14:16:37;0.50;;;0.20;;
41829;SDS011;38614;43.472;23.936;2023-05-01T14:19:27;2.38;;;0.38;;
41829;SDS011;38614;43.472;23.936;2023-05-01T14:22:15;4.53;;;0.10;;
41829;SDS011;38614;43.472;23.936;2023-05-01T14:25:04;0.90;;;0.70;;
41829;SDS011;38614;43.472;23.936;2023-05-01T14:27:53;2.25;;;0.25;;
41829;SDS011;38614;43.472;23.936;2023-05-01T14:30:42;2.28;;;0.28;;
41829;SDS011;38614;43.472;23.936;2023-05-01T14:33:32;0.73;;;0.20;;
41829;SDS011;38614;43.472;23.936;2023-05-01T14:36:19;0.70;;;0.20;;
41829;SDS011;38614;43.472;23.936;2023-05-01T14:39:07;1.92;;;0.10;;
41829;SDS011;38614;43.472;23.936;2023-05-01T14:41:55;0.95;;;0.25;;
41829;SDS011;38614;43.472;23.936;2023-05-01T14:44:44;1.40;;;0.35;;
41829;SDS011;38614;43.472;23.936;2023-05-01T14:47:32;0.45;;;0.10;;
41829;SDS011;38614;43.472;23.936;2023-05-01T14:50:23;3.63;;;0.75;;
41829;SDS011;38614;43.472;23.936;2023-05-01T14:53:11;2.67;;;0.98;;
41829;SDS011;38614;43.472;23.936;2023-05-01T14:56:00;2.63;;;0.60;;
41829;SDS011;38614;43.472;23.936;2023-05-01T14:58:48;1.45;;;0.77;;
41829;SDS011;38614;43.472;23.936;2023-05-01T15:01:36;6.75;;;0.77;;
41829;SDS011;38614;43.472;23.936;2023-05-01T15:04:23;1.42;;;0.50;;
41829;SDS011;38614;43.472;23.936;2023-05-01T15:07:12;2.65;;;0.25;;
41829;SDS011;38614;43.472;23.936;2023-05-01T15:10:02;1.23;;;0.30;;
41829;SDS011;38614;43.472;23.936;2023-05-01T15:12:52;1.42;;;0.43;;
41829;SDS011;38614;43.472;23.936;2023-05-01T15:15:40;2.03;;;0.50;;
41829;SDS011;38614;43.472;23.936;2023-05-01T15:18:28;7.03;;;0.63;;
41829;SDS011;38614;43.472;23.936;2023-05-01T15:21:15;0.43;;;0.30;;
41829;SDS011;38614;43.472;23.936;2023-05-01T15:24:08;2.90;;;0.25;;
41829;SDS011;38614;43.472;23.936;2023-05-01T15:26:56;3.10;;;0.40;;
41829;SDS011;38614;43.472;23.936;2023-05-01T15:29:44;0.93;;;0.32;;
41829;SDS011;38614;43.472;23.936;2023-05-01T15:32:31;9.30;;;1.95;;
41829;SDS011;38614;43.472;23.936;2023-05-01T15:35:19;5.10;;;0.50;;
41829;SDS011;38614;43.472;23.936;2023-05-01T15:38:07;4.07;;;1.10;;
41829;SDS011;38614;43.472;23.936;2023-05-01T15:40:55;1.48;;;0.82;;
41829;SDS011;38614;43.472;23.936;2023-05-01T15:43:43;3.30;;;1.20;;
41829;SDS011;38614;43.472;23.936;2023-05-01T15:46:31;1.00;;;0.57;;
41829;SDS011;38614;43.472;23.936;2023-05-01T15:49:22;7.25;;;1.30;;
41829;SDS011;38614;43.472;23.936;2023-05-01T15:52:10;0.95;;;0.30;;
41829;SDS011;38614;43.472;23.936;2023-05-01T15:54:58;3.25;;;1.75;;
41829;SDS011;38614;43.472;23.936;2023-05-01T15:57:46;4.07;;;0.63;;
41829;SDS011;38614;43.472;23.936;2023-05-01T16:00:34;11.77;;;1.02;;
41829;SDS011;38614;43.472;23.936;2023-05-01T16:03:24;3.50;;;0.60;;
41829;SDS011;38614;43.472;23.936;2023-05-01T16:06:13;1.00;;;0.30;;
41829;SDS011;38614;43.472;23.936;2023-05-01T16:09:08;1.98;;;0.52;;
41829;SDS011;38614;43.472;23.936;2023-05-01T16:12:00;1.50;;;0.57;;
41829;SDS011;38614;43.472;23.936;2023-05-01T16:14:51;5.70;;;0.88;;
41829;SDS011;38614;43.472;23.936;2023-05-01T16:17:42;4.18;;;0.77;;
41829;SDS011;38614;43.472;23.936;2023-05-01T16:20:35;0.82;;;0.43;;
41829;SDS011;38614;43.472;23.936;2023-05-01T16:23:27;8.38;;;1.15;;
41829;SDS011;38614;43.472;23.936;2023-05-01T16:26:25;1.37;;;0.97;;
41829;SDS011;38614;43.472;23.936;2023-05-01T16:29:14;6.45;;;0.52;;
41829;SDS011;38614;43.472;23.936;2023-05-01T16:32:05;2.47;;;0.60;;
41829;SDS011;38614;43.472;23.936;2023-05-01T16:34:58;0.57;;;0.38;;
41829;SDS011;38614;43.472;23.936;2023-05-01T16:37:49;2.95;;;0.30;;
41829;SDS011;38614;43.472;23.936;2023-05-01T16:40:39;0.77;;;0.43;;
41829;SDS011;38614;43.472;23.936;2023-05-01T16:43:35;1.35;;;0.60;;
41829;SDS011;38614;43.472;23.936;2023-05-01T16:46:30;10.57;;;1.85;;
41829;SDS011;38614;43.472;23.936;2023-05-01T16:49:20;3.75;;;0.60;;
41829;SDS011;38614;43.472;23.936;2023-05-01T16:52:09;9.00;;;0.85;;
41829;SDS011;38614;43.472;23.936;2023-05-01T16:55:00;8.60;;;0.70;;
41829;SDS011;38614;43.472;23.936;2023-05-01T16:57:48;1.48;;;0.93;;
41829;SDS011;38614;43.472;23.936;2023-05-01T17:00:35;3.53;;;0.60;;
41829;SDS011;38614;43.472;23.936;2023-05-01T17:03:23;2.10;;;1.15;;
41829;SDS011;38614;43.472;23.936;2023-05-01T17:06:11;7.30;;;0.73;;
41829;SDS011;38614;43.472;23.936;2023-05-01T17:09:02;4.22;;;0.77;;
41829;SDS011;38614;43.472;23.936;2023-05-01T17:11:49;3.78;;;1.15;;
41829;SDS011;38614;43.472;23.936;2023-05-01T17:14:37;6.15;;;0.88;;
41829;SDS011;38614;43.472;23.936;2023-05-01T17:17:28;4.10;;;0.90;;
41829;SDS011;38614;43.472;23.936;2023-05-01T17:20:16;6.93;;;0.95;;
41829;SDS011;38614;43.472;23.936;2023-05-01T17:23:03;1.20;;;0.38;;
41829;SDS011;38614;43.472;23.936;2023-05-01T17:25:57;8.95;;;0.55;;
41829;SDS011;38614;43.472;23.936;2023-05-01T17:28:45;3.25;;;0.52;;
41829;SDS011;38614;43.472;23.936;2023-05-01T17:31:33;2.45;;;0.40;;
41829;SDS011;38614;43.472;23.936;2023-05-01T17:34:20;2.95;;;1.35;;